createdAt,value
2018-05-05T00:00:16.588Z,88.20
2018-05-05T00:01:16.561Z,88.10
2018-05-05T00:02:16.589Z,88.01
2018-05-05T00:03:16.508Z,88.29
2018-05-05T00:04:16.481Z,88.48
2018-05-05T00:05:16.453Z,88.01
2018-05-05T00:06:16.430Z,88.77
2018-05-05T00:07:16.396Z,88.68
2018-05-05T00:08:16.375Z,89.25
2018-05-05T00:09:16.345Z,89.25
2018-05-05T00:10:16.324Z,89.25
2018-05-05T00:11:16.282Z,89.44
2018-05-05T00:12:16.255Z,89.25
2018-05-05T00:13:16.233Z,88.29
2018-05-05T00:14:16.208Z,89.25
2018-05-05T00:15:16.181Z,89.06
2018-05-05T00:16:16.151Z,89.59
2018-05-05T00:17:16.126Z,89.25
2018-05-05T00:18:16.100Z,88.87
2018-05-05T00:19:16.068Z,89.06
2018-05-05T00:20:16.039Z,89.25
2018-05-05T00:21:16.014Z,89.44
2018-05-05T00:22:15.987Z,89.44
2018-05-05T00:23:15.953Z,89.15
2018-05-05T00:24:15.927Z,89.15
2018-05-05T00:25:15.949Z,89.25
2018-05-05T00:26:15.872Z,89.25
2018-05-05T00:27:15.850Z,89.06
2018-05-05T00:28:15.824Z,89.15
2018-05-05T00:29:15.794Z,89.01
2018-05-05T00:30:15.768Z,89.01
2018-05-05T00:31:15.737Z,89.78
2018-05-05T00:32:15.712Z,89.49
2018-05-05T00:33:15.686Z,89.59
2018-05-05T00:34:15.653Z,89.49
2018-05-05T00:35:15.635Z,89.78
2018-05-05T00:36:15.606Z,89.59
2018-05-05T00:37:15.578Z,89.87
2018-05-05T00:38:15.547Z,89.39
2018-05-05T00:39:15.528Z,89.01
2018-05-05T00:40:15.493Z,89.30
2018-05-05T00:41:15.464Z,89.30
2018-05-05T00:42:15.439Z,90.45
2018-05-05T00:43:15.412Z,89.68
2018-05-05T00:44:15.384Z,90.16
2018-05-05T00:45:15.357Z,89.78
2018-05-05T00:46:15.325Z,90.16
2018-05-05T00:47:15.310Z,90.16
2018-05-05T00:48:15.277Z,89.30
2018-05-05T00:49:15.252Z,89.97
2018-05-05T00:50:15.221Z,89.06
2018-05-05T00:51:15.194Z,90.21
2018-05-05T00:52:15.169Z,90.31
2018-05-05T00:53:15.133Z,89.64
2018-05-05T00:54:15.115Z,89.97
2018-05-05T00:55:15.074Z,89.92
2018-05-05T00:56:15.053Z,89.78
2018-05-05T00:57:15.029Z,89.78
2018-05-05T00:58:14.990Z,89.97
2018-05-05T00:59:14.974Z,90.16
2018-05-05T01:00:14.942Z,89.59
2018-05-05T01:01:14.921Z,89.68
2018-05-05T01:02:14.887Z,89.11
2018-05-05T01:03:14.854Z,89.87
2018-05-05T01:04:14.829Z,89.87
2018-05-05T01:05:14.797Z,89.68
2018-05-05T01:06:14.771Z,89.20
2018-05-05T01:07:14.750Z,89.64
2018-05-05T01:08:14.720Z,89.68
2018-05-05T01:09:14.688Z,90.45
2018-05-05T01:10:14.661Z,89.92
2018-05-05T01:11:14.636Z,89.64
2018-05-05T01:12:14.611Z,90.11
2018-05-05T01:13:14.582Z,89.73
2018-05-05T01:14:14.551Z,90.02
2018-05-05T01:15:14.526Z,89.83
2018-05-05T01:16:14.492Z,89.73
2018-05-05T01:17:14.465Z,90.11
2018-05-05T01:18:14.444Z,90.11
2018-05-05T01:19:14.416Z,90.11
2018-05-05T01:20:14.390Z,89.83
2018-05-05T01:21:14.367Z,90.11
2018-05-05T01:22:14.332Z,90.02
2018-05-05T01:23:14.301Z,90.02
2018-05-05T01:24:14.275Z,90.02
2018-05-05T01:25:14.249Z,89.16
2018-05-05T01:26:14.220Z,90.11
2018-05-05T01:27:14.194Z,89.83
2018-05-05T01:28:14.166Z,90.31
2018-05-05T01:29:14.131Z,90.02
2018-05-05T01:30:14.114Z,90.02
2018-05-05T01:31:14.081Z,90.31
2018-05-05T01:32:14.056Z,89.83
2018-05-05T01:33:14.033Z,90.21
2018-05-05T01:34:13.998Z,90.50
2018-05-05T01:35:13.967Z,88.97
2018-05-05T01:36:13.941Z,90.50
2018-05-05T01:37:13.911Z,90.02
2018-05-05T01:38:13.880Z,89.64
2018-05-05T01:39:13.863Z,90.40
2018-05-05T01:40:13.830Z,89.73
2018-05-05T01:41:13.800Z,89.64
2018-05-05T01:42:13.775Z,89.45
2018-05-05T01:43:13.744Z,89.73
2018-05-05T01:44:13.719Z,89.35
2018-05-05T01:45:13.696Z,88.73
2018-05-05T01:46:13.663Z,88.73
2018-05-05T01:47:13.631Z,88.64
2018-05-05T01:48:13.649Z,88.54
2018-05-05T01:49:13.578Z,88.35
2018-05-05T01:50:13.547Z,88.83
2018-05-05T01:51:13.524Z,88.35
2018-05-05T01:52:13.499Z,87.78
2018-05-05T01:53:13.467Z,88.64
2018-05-05T01:54:13.444Z,88.26
2018-05-05T01:55:13.406Z,88.54
2018-05-05T01:56:13.378Z,88.26
2018-05-05T01:57:13.364Z,87.78
2018-05-05T01:58:13.339Z,87.40
2018-05-05T01:59:13.295Z,88.16
2018-05-05T02:00:13.274Z,87.49
2018-05-05T02:01:13.261Z,88.16
2018-05-05T02:02:13.212Z,87.68
2018-05-05T02:03:13.186Z,88.16
2018-05-05T02:04:13.150Z,87.40
2018-05-05T02:05:13.124Z,87.68
2018-05-05T02:06:13.104Z,87.30
2018-05-05T02:07:13.073Z,87.40
2018-05-05T02:08:13.045Z,87.49
2018-05-05T02:09:13.017Z,86.82
2018-05-05T02:10:12.993Z,86.35
2018-05-05T02:11:12.962Z,85.73
2018-05-05T02:12:12.932Z,85.83
2018-05-05T02:13:12.904Z,85.25
2018-05-05T02:14:12.875Z,85.49
2018-05-05T02:15:12.844Z,86.54
2018-05-05T02:16:12.816Z,86.06
2018-05-05T02:17:12.785Z,85.49
2018-05-05T02:18:12.762Z,85.87
2018-05-05T02:19:12.737Z,85.73
2018-05-05T02:20:12.707Z,85.68
2018-05-05T02:21:12.683Z,86.02
2018-05-05T02:22:12.653Z,85.25
2018-05-05T02:23:12.627Z,85.16
2018-05-05T02:24:12.588Z,84.88
2018-05-05T02:25:12.558Z,84.59
2018-05-05T02:26:12.559Z,84.88
2018-05-05T02:27:12.517Z,84.69
2018-05-05T02:28:12.487Z,83.64
2018-05-05T02:29:12.469Z,83.83
2018-05-05T02:30:12.430Z,83.73
2018-05-05T02:31:12.410Z,83.83
2018-05-05T02:32:12.369Z,82.40
2018-05-05T02:33:12.344Z,82.11
2018-05-05T02:34:12.315Z,82.97
2018-05-05T02:35:12.279Z,82.40
2018-05-05T02:36:12.251Z,82.20
2018-05-05T02:37:12.221Z,81.82
2018-05-05T02:38:12.197Z,82.01
2018-05-05T02:39:12.169Z,81.35
2018-05-05T02:40:12.141Z,82.59
2018-05-05T02:41:12.114Z,81.54
2018-05-05T02:42:12.092Z,80.68
2018-05-05T02:43:12.056Z,81.92
2018-05-05T02:44:12.023Z,82.01
2018-05-05T02:45:11.997Z,81.73
2018-05-05T02:46:11.969Z,82.20
2018-05-05T02:47:11.942Z,82.49
2018-05-05T02:48:11.914Z,82.40
2018-05-05T02:49:11.881Z,82.40
2018-05-05T02:50:11.855Z,82.20
2018-05-05T02:51:11.827Z,82.68
2018-05-05T02:52:11.801Z,82.40
2018-05-05T02:53:11.776Z,82.40
2018-05-05T02:54:11.741Z,82.30
2018-05-05T02:55:11.713Z,82.30
2018-05-05T02:56:11.683Z,82.30
2018-05-05T02:57:11.650Z,81.73
2018-05-05T02:58:11.625Z,80.96
2018-05-05T02:59:11.598Z,82.20
2018-05-05T03:00:11.578Z,81.73
2018-05-05T03:01:11.539Z,80.68
2018-05-05T03:02:11.511Z,81.44
2018-05-05T03:03:11.483Z,80.58
2018-05-05T03:04:11.464Z,80.49
2018-05-05T03:05:11.430Z,80.39
2018-05-05T03:06:11.397Z,81.54
2018-05-05T03:07:11.369Z,80.96
2018-05-05T03:08:11.341Z,80.77
2018-05-05T03:09:11.309Z,80.68
2018-05-05T03:10:11.294Z,81.44
2018-05-05T03:11:11.256Z,80.58
2018-05-05T03:12:11.229Z,81.63
2018-05-05T03:13:11.203Z,81.35
2018-05-05T03:14:11.172Z,81.44
2018-05-05T03:15:11.142Z,81.25
2018-05-05T03:16:11.109Z,80.58
2018-05-05T03:17:11.100Z,81.73
2018-05-05T03:18:11.060Z,79.82
2018-05-05T03:19:11.030Z,80.87
2018-05-05T03:20:10.996Z,79.88
2018-05-05T03:21:10.965Z,79.30
2018-05-05T03:22:10.940Z,79.78
2018-05-05T03:23:10.913Z,79.02
2018-05-05T03:24:10.884Z,78.73
2018-05-05T03:25:10.867Z,78.73
2018-05-05T03:26:10.835Z,78.73
2018-05-05T03:27:10.794Z,77.69
2018-05-05T03:28:10.769Z,78.16
2018-05-05T03:29:10.737Z,77.87
2018-05-05T03:30:10.705Z,77.78
2018-05-05T03:31:10.686Z,76.73
2018-05-05T03:32:10.652Z,76.92
2018-05-05T03:33:10.623Z,75.96
2018-05-05T03:34:10.590Z,76.54
2018-05-05T03:35:10.569Z,76.54
2018-05-05T03:36:10.543Z,76.06
2018-05-05T03:37:10.509Z,76.73
2018-05-05T03:38:10.496Z,75.78
2018-05-05T03:39:10.446Z,76.25
2018-05-05T03:40:10.425Z,75.68
2018-05-05T03:41:10.396Z,76.35
2018-05-05T03:42:10.363Z,75.59
2018-05-05T03:43:10.339Z,75.87
2018-05-05T03:44:10.317Z,75.49
2018-05-05T03:45:10.287Z,75.78
2018-05-05T03:46:10.261Z,75.78
2018-05-05T03:47:10.222Z,74.40
2018-05-05T03:48:10.194Z,74.73
2018-05-05T03:49:10.167Z,74.44
2018-05-05T03:50:10.137Z,74.25
2018-05-05T03:51:10.107Z,75.49
2018-05-05T03:52:10.079Z,74.44
2018-05-05T03:53:10.049Z,74.16
2018-05-05T03:54:10.016Z,74.06
2018-05-05T03:55:09.994Z,73.26
2018-05-05T03:56:09.963Z,73.65
2018-05-05T03:57:09.939Z,73.55
2018-05-05T03:58:09.912Z,72.88
2018-05-05T03:59:09.872Z,73.39
2018-05-05T04:00:09.847Z,73.39
2018-05-05T04:01:09.815Z,73.55
2018-05-05T04:02:09.784Z,72.97
2018-05-05T04:03:09.765Z,72.12
2018-05-05T04:04:09.739Z,72.02
2018-05-05T04:05:09.701Z,72.69
2018-05-05T04:06:09.672Z,72.78
2018-05-05T04:07:09.650Z,71.83
2018-05-05T04:08:09.620Z,72.12
2018-05-05T04:09:09.598Z,72.63
2018-05-05T04:10:09.561Z,73.26
2018-05-05T04:11:09.543Z,72.78
2018-05-05T04:12:09.497Z,72.12
2018-05-05T04:13:09.469Z,72.12
2018-05-05T04:14:09.496Z,71.64
2018-05-05T04:15:09.419Z,72.12
2018-05-05T04:16:09.395Z,71.64
2018-05-05T04:17:09.361Z,72.60
2018-05-05T04:18:09.332Z,72.12
2018-05-05T04:19:09.292Z,72.60
2018-05-05T04:20:09.268Z,71.83
2018-05-05T04:21:09.241Z,72.78
2018-05-05T04:22:09.217Z,72.41
2018-05-05T04:23:09.182Z,71.45
2018-05-05T04:24:09.153Z,71.55
2018-05-05T04:25:09.121Z,71.93
2018-05-05T04:26:09.090Z,72.31
2018-05-05T04:27:09.074Z,71.36
2018-05-05T04:28:09.042Z,72.21
2018-05-05T04:29:09.009Z,71.45
2018-05-05T04:30:08.981Z,70.78
2018-05-05T04:31:08.951Z,72.12
2018-05-05T04:32:08.922Z,72.31
2018-05-05T04:33:08.889Z,72.16
2018-05-05T04:34:08.857Z,72.97
2018-05-05T04:35:08.839Z,71.45
2018-05-05T04:36:08.813Z,72.25
2018-05-05T04:37:08.785Z,72.16
2018-05-05T04:38:08.748Z,71.20
2018-05-05T04:39:08.719Z,72.78
2018-05-05T04:40:08.701Z,71.58
2018-05-05T04:41:08.664Z,72.02
2018-05-05T04:42:08.637Z,72.21
2018-05-05T04:43:08.599Z,70.78
2018-05-05T04:44:08.634Z,72.34
2018-05-05T04:45:08.543Z,72.25
2018-05-05T04:46:08.513Z,72.06
2018-05-05T04:47:08.549Z,70.63
2018-05-05T04:48:08.470Z,70.63
2018-05-05T04:49:08.432Z,73.21
2018-05-05T04:50:08.401Z,72.06
2018-05-05T04:51:08.374Z,72.72
2018-05-05T04:52:08.358Z,73.77
2018-05-05T04:53:08.315Z,73.58
2018-05-05T04:54:08.285Z,73.77
2018-05-05T04:55:08.256Z,73.01
2018-05-05T04:56:08.230Z,73.58
2018-05-05T04:57:08.217Z,73.49
2018-05-05T04:58:08.179Z,74.44
2018-05-05T04:59:08.148Z,73.39
2018-05-05T05:00:08.111Z,74.16
2018-05-05T05:01:08.091Z,73.39
2018-05-05T05:02:08.060Z,74.44
2018-05-05T05:03:08.021Z,74.25
2018-05-05T05:04:07.995Z,73.77
2018-05-05T05:05:07.972Z,74.25
2018-05-05T05:06:07.941Z,73.77
2018-05-05T05:07:07.911Z,74.73
2018-05-05T05:08:07.882Z,74.25
2018-05-05T05:09:07.853Z,74.92
2018-05-05T05:10:07.827Z,73.39
2018-05-05T05:11:07.848Z,71.96
2018-05-05T05:12:07.770Z,73.68
2018-05-05T05:13:07.757Z,74.44
2018-05-05T05:14:07.711Z,73.58
2018-05-05T05:15:07.680Z,73.49
2018-05-05T05:16:07.647Z,73.87
2018-05-05T05:17:07.625Z,74.44
2018-05-05T05:18:07.587Z,73.49
2018-05-05T05:19:07.567Z,73.58
2018-05-05T05:20:07.538Z,73.49
2018-05-05T05:21:07.508Z,73.72
2018-05-05T05:22:07.480Z,74.73
2018-05-05T05:23:07.446Z,73.81
2018-05-05T05:24:07.428Z,75.72
2018-05-05T05:25:07.393Z,74.86
2018-05-05T05:26:07.367Z,73.52
2018-05-05T05:27:07.339Z,74.86
2018-05-05T05:28:07.309Z,75.24
2018-05-05T05:29:07.280Z,75.15
2018-05-05T05:30:07.244Z,75.05
2018-05-05T05:31:07.222Z,74.38
2018-05-05T05:32:07.193Z,76.57
2018-05-05T05:33:07.167Z,75.24
2018-05-05T05:34:07.233Z,75.43
2018-05-05T05:35:07.113Z,73.72
2018-05-05T05:36:07.077Z,75.62
2018-05-05T05:37:07.048Z,75.91
2018-05-05T05:38:07.019Z,75.53
2018-05-05T05:39:06.993Z,76.96
2018-05-05T05:40:06.966Z,75.24
2018-05-05T05:41:06.953Z,76.48
2018-05-05T05:42:06.903Z,75.91
2018-05-05T05:43:06.879Z,76.10
2018-05-05T05:44:06.852Z,75.43
2018-05-05T05:45:06.821Z,76.39
2018-05-05T05:46:06.796Z,76.67
2018-05-05T05:47:06.760Z,75.34
2018-05-05T05:48:06.734Z,76.67
2018-05-05T05:49:06.703Z,77.44
2018-05-05T05:50:06.676Z,76.20
2018-05-05T05:51:06.674Z,76.48
2018-05-05T05:52:06.655Z,75.81
2018-05-05T05:53:06.595Z,76.48
2018-05-05T05:54:06.567Z,76.29
2018-05-05T05:55:06.536Z,77.34
2018-05-05T05:56:06.519Z,77.19
2018-05-05T05:57:06.484Z,77.47
2018-05-05T05:58:06.455Z,77.95
2018-05-05T05:59:06.417Z,77.28
2018-05-05T06:00:06.402Z,78.23
2018-05-05T06:01:06.402Z,77.09
2018-05-05T06:02:06.337Z,78.05
2018-05-05T06:03:06.312Z,76.81
2018-05-05T06:04:06.280Z,77.76
2018-05-05T06:05:06.264Z,77.95
2018-05-05T06:06:06.233Z,77.86
2018-05-05T06:07:06.192Z,77.00
2018-05-05T06:08:06.173Z,77.09
2018-05-05T06:09:06.143Z,78.23
2018-05-05T06:10:06.109Z,78.62
2018-05-05T06:11:06.085Z,80.33
2018-05-05T06:12:06.057Z,79.96
2018-05-05T06:13:06.024Z,79.10
2018-05-05T06:14:05.996Z,79.77
2018-05-05T06:15:05.984Z,79.86
2018-05-05T06:16:05.941Z,78.91
2018-05-05T06:17:05.918Z,79.86
2018-05-05T06:18:05.904Z,80.09
2018-05-05T06:19:05.856Z,80.19
2018-05-05T06:20:05.826Z,80.95
2018-05-05T06:21:05.803Z,81.04
2018-05-05T06:22:05.774Z,80.57
2018-05-05T06:23:05.746Z,80.28
2018-05-05T06:24:05.717Z,81.62
2018-05-05T06:25:05.691Z,80.76
2018-05-05T06:26:05.663Z,82.00
2018-05-05T06:27:05.633Z,82.09
2018-05-05T06:28:05.608Z,82.29
2018-05-05T06:29:05.581Z,82.48
2018-05-05T06:30:05.551Z,82.04
2018-05-05T06:31:05.514Z,82.61
2018-05-05T06:32:05.493Z,82.04
2018-05-05T06:33:05.471Z,82.52
2018-05-05T06:34:05.432Z,83.38
2018-05-05T06:35:05.414Z,83.95
2018-05-05T06:36:05.386Z,84.43
2018-05-05T06:37:05.357Z,84.05
2018-05-05T06:38:05.332Z,84.91
2018-05-05T06:39:05.293Z,84.81
2018-05-05T06:40:05.266Z,84.81
2018-05-05T06:41:05.255Z,84.33
2018-05-05T06:42:05.211Z,84.62
2018-05-05T06:43:05.193Z,85.58
2018-05-05T06:44:05.161Z,85.77
2018-05-05T06:45:05.130Z,85.48
2018-05-05T06:46:05.096Z,86.34
2018-05-05T06:47:05.089Z,86.47
2018-05-05T06:48:05.052Z,86.47
2018-05-05T06:49:05.026Z,87.15
2018-05-05T06:50:04.992Z,86.63
2018-05-05T06:51:04.959Z,86.67
2018-05-05T06:52:04.937Z,87.72
2018-05-05T06:53:04.909Z,87.62
2018-05-05T06:54:04.879Z,87.05
2018-05-05T06:55:04.856Z,86.86
2018-05-05T06:56:04.826Z,87.82
2018-05-05T06:57:04.885Z,86.67
2018-05-05T06:58:04.775Z,87.62
2018-05-05T06:59:04.739Z,86.38
2018-05-05T07:00:04.712Z,87.05
2018-05-05T07:01:04.692Z,87.05
2018-05-05T07:02:04.668Z,87.72
2018-05-05T07:03:04.629Z,88.29
2018-05-05T07:04:04.606Z,88.34
2018-05-05T07:05:04.578Z,88.24
2018-05-05T07:06:04.554Z,88.05
2018-05-05T07:07:04.531Z,88.24
2018-05-05T07:08:04.496Z,89.77
2018-05-05T07:09:04.492Z,88.24
2018-05-05T07:10:04.446Z,88.91
2018-05-05T07:11:04.407Z,89.10
2018-05-05T07:12:04.386Z,89.10
2018-05-05T07:13:04.362Z,89.67
2018-05-05T07:14:04.327Z,89.48
2018-05-05T07:15:04.305Z,90.25
2018-05-05T07:16:04.277Z,90.44
2018-05-05T07:17:04.250Z,89.87
2018-05-05T07:18:04.223Z,89.96
2018-05-05T07:19:04.200Z,89.58
2018-05-05T07:20:04.169Z,89.34
2018-05-05T07:21:04.141Z,89.34
2018-05-05T07:22:04.117Z,89.53
2018-05-05T07:23:04.078Z,89.34
2018-05-05T07:24:04.070Z,89.34
2018-05-05T07:25:04.034Z,89.15
2018-05-05T07:26:04.001Z,88.76
2018-05-05T07:27:03.979Z,88.19
2018-05-05T07:28:03.957Z,88.29
2018-05-05T07:29:03.922Z,88.23
2018-05-05T07:30:03.906Z,88.43
2018-05-05T07:31:03.862Z,87.95
2018-05-05T07:32:03.838Z,87.47
2018-05-05T07:33:03.814Z,86.04
2018-05-05T07:34:03.786Z,85.27
2018-05-05T07:35:03.752Z,84.31
2018-05-05T07:36:03.729Z,84.50
2018-05-05T07:37:03.708Z,83.26
2018-05-05T07:38:03.680Z,82.87
2018-05-05T07:39:03.655Z,81.54
2018-05-05T07:40:03.629Z,81.15
2018-05-05T07:41:03.600Z,83.36
2018-05-05T07:42:03.576Z,81.05
2018-05-05T07:43:03.540Z,79.43
2018-05-05T07:44:03.511Z,79.62
2018-05-05T07:45:03.487Z,78.86
2018-05-05T07:46:03.461Z,79.75
2018-05-05T07:47:03.438Z,79.18
2018-05-05T07:48:03.412Z,79.57
2018-05-05T07:49:03.380Z,79.57
2018-05-05T07:50:03.348Z,79.47
2018-05-05T07:51:03.329Z,77.55
2018-05-05T07:52:03.306Z,78.03
2018-05-05T07:53:03.275Z,79.18
2018-05-05T07:54:03.247Z,77.55
2018-05-05T07:55:03.222Z,77.21
2018-05-05T07:56:03.192Z,75.10
2018-05-05T07:57:03.165Z,75.01
2018-05-05T07:58:03.152Z,74.05
2018-05-05T07:59:03.116Z,75.68
2018-05-05T08:00:03.084Z,74.15
2018-05-05T08:01:03.060Z,72.13
2018-05-05T08:02:03.034Z,72.13
2018-05-05T08:03:03.000Z,71.08
2018-05-05T08:04:03.031Z,71.08
2018-05-05T08:05:02.964Z,71.27
2018-05-05T08:06:02.938Z,70.79
2018-05-05T08:07:02.907Z,71.66
2018-05-05T08:08:02.875Z,71.50
2018-05-05T08:09:02.858Z,69.96
2018-05-05T08:10:02.821Z,70.73
2018-05-05T08:11:02.807Z,69.96
2018-05-05T08:12:02.780Z,69.10
2018-05-05T08:13:02.753Z,66.99
2018-05-05T08:14:02.716Z,67.47
2018-05-05T08:15:02.687Z,66.35
2018-05-05T08:16:02.681Z,65.97
2018-05-05T08:17:02.633Z,67.02
2018-05-05T08:18:02.687Z,67.12
2018-05-05T08:19:02.607Z,66.35
2018-05-05T08:20:02.563Z,64.53
2018-05-05T08:21:02.529Z,64.25
2018-05-05T08:22:02.506Z,64.05
2018-05-05T08:23:02.486Z,64.92
2018-05-05T08:24:02.457Z,64.34
2018-05-05T08:25:02.440Z,64.43
2018-05-05T08:26:02.402Z,63.86
2018-05-05T08:27:02.372Z,64.34
2018-05-05T08:28:02.346Z,64.72
2018-05-05T08:29:02.353Z,64.76
2018-05-05T08:30:02.295Z,62.84
2018-05-05T08:31:02.277Z,61.49
2018-05-05T08:32:02.260Z,62.16
2018-05-05T08:33:02.297Z,61.98
2018-05-05T08:34:02.195Z,61.49
2018-05-05T08:35:02.185Z,61.24
2018-05-05T08:36:02.145Z,61.05
2018-05-05T08:37:02.122Z,61.43
2018-05-05T08:38:02.094Z,61.05
2018-05-05T08:39:02.063Z,60.85
2018-05-05T08:40:02.036Z,60.66
2018-05-05T08:41:02.018Z,60.85
2018-05-05T08:42:01.983Z,60.75
2018-05-05T08:43:01.972Z,59.51
2018-05-05T08:44:01.940Z,59.61
2018-05-05T08:45:01.914Z,60.66
2018-05-05T08:46:01.909Z,59.80
2018-05-05T08:47:01.855Z,59.70
2018-05-05T08:48:01.833Z,58.96
2018-05-05T08:49:01.809Z,58.94
2018-05-05T08:50:01.791Z,59.99
2018-05-05T08:51:01.765Z,59.64
2018-05-05T08:52:01.736Z,59.44
2018-05-05T08:53:01.707Z,59.83
2018-05-05T08:54:01.693Z,58.39
2018-05-05T08:55:01.663Z,57.43
2018-05-05T08:56:01.641Z,57.71
2018-05-05T08:57:01.612Z,57.71
2018-05-05T08:58:01.584Z,57.33
2018-05-05T08:59:01.553Z,57.33
2018-05-05T09:00:01.530Z,58.10
2018-05-05T09:01:01.590Z,57.04
2018-05-05T09:02:01.478Z,57.04
2018-05-05T09:03:01.539Z,56.30
2018-05-05T09:04:01.432Z,54.67
2018-05-05T09:05:01.407Z,54.57
2018-05-05T09:06:01.391Z,54.57
2018-05-05T09:07:01.355Z,54.86
2018-05-05T09:08:01.329Z,53.61
2018-05-05T09:09:01.310Z,52.75
2018-05-05T09:10:01.286Z,52.68
2018-05-05T09:11:01.253Z,53.13
2018-05-05T09:12:01.288Z,53.54
2018-05-05T09:13:01.217Z,52.58
2018-05-05T09:14:01.187Z,53.35
2018-05-05T09:15:01.162Z,53.83
2018-05-05T09:16:01.133Z,53.09
2018-05-05T09:17:01.107Z,53.19
2018-05-05T09:18:01.090Z,53.19
2018-05-05T09:19:01.055Z,53.28
2018-05-05T09:20:01.032Z,52.12
2018-05-05T09:21:01.018Z,52.89
2018-05-05T09:22:00.988Z,52.80
2018-05-05T09:23:00.963Z,52.51
2018-05-05T09:24:00.940Z,51.96
2018-05-05T09:25:00.915Z,52.25
2018-05-05T09:26:00.891Z,52.06
2018-05-05T09:27:00.879Z,50.90
2018-05-05T09:28:00.846Z,49.46
2018-05-05T09:29:00.824Z,50.23
2018-05-05T09:30:00.795Z,50.32
2018-05-05T09:31:00.764Z,50.23
2018-05-05T09:32:00.743Z,48.97
2018-05-05T09:33:00.717Z,49.27
2018-05-05T09:34:00.723Z,49.46
2018-05-05T09:35:00.672Z,49.46
2018-05-05T09:36:00.652Z,50.42
2018-05-05T09:37:00.626Z,49.55
2018-05-05T09:38:00.607Z,49.27
2018-05-05T09:39:00.578Z,48.88
2018-05-05T09:40:00.553Z,48.71
2018-05-05T09:41:00.536Z,48.52
2018-05-05T09:42:00.509Z,48.30
2018-05-05T09:43:00.520Z,48.43
2018-05-05T09:44:00.455Z,47.56
2018-05-05T09:45:00.450Z,47.08
2018-05-05T09:46:00.402Z,47.27
2018-05-05T09:47:00.395Z,46.98
2018-05-05T09:48:00.367Z,47.27
2018-05-05T09:49:00.337Z,46.78
2018-05-05T09:50:00.319Z,46.78
2018-05-05T09:51:00.287Z,46.88
2018-05-05T09:52:00.263Z,47.17
2018-05-05T09:53:00.310Z,46.01
2018-05-05T09:54:00.215Z,46.11
2018-05-05T09:55:00.196Z,45.83
2018-05-05T09:56:00.180Z,46.14
2018-05-05T09:57:00.150Z,45.75
2018-05-05T09:58:00.124Z,45.94
2018-05-05T09:59:00.102Z,45.56
2018-05-05T10:00:00.083Z,45.97
2018-05-05T10:01:00.056Z,46.15
2018-05-05T10:02:00.033Z,45.68
2018-05-05T10:03:00.002Z,46.06
2018-05-05T10:03:59.980Z,45.48
2018-05-05T10:04:59.968Z,44.90
2018-05-05T10:05:59.938Z,44.32
2018-05-05T10:06:59.924Z,43.55
2018-05-05T10:07:59.890Z,43.46
2018-05-05T10:09:00.016Z,42.59
2018-05-05T10:09:59.882Z,42.97
2018-05-05T10:10:59.818Z,43.07
2018-05-05T10:11:59.798Z,42.97
2018-05-05T10:12:59.784Z,42.69
2018-05-05T10:13:59.764Z,42.88
2018-05-05T10:14:59.733Z,43.55
2018-05-05T10:15:59.788Z,43.27
2018-05-05T10:16:59.685Z,43.48
2018-05-05T10:17:59.663Z,42.79
2018-05-05T10:18:59.656Z,43.48
2018-05-05T10:19:59.642Z,43.37
2018-05-05T10:20:59.604Z,42.79
2018-05-05T10:21:59.576Z,42.32
2018-05-05T10:22:59.562Z,42.59
2018-05-05T10:23:59.526Z,43.46
2018-05-05T10:24:59.506Z,43.17
2018-05-05T10:25:59.472Z,42.97
2018-05-05T10:26:59.465Z,42.79
2018-05-05T10:27:59.433Z,42.59
2018-05-05T10:28:59.468Z,42.32
2018-05-05T10:29:59.383Z,42.71
2018-05-05T10:30:59.365Z,42.15
2018-05-05T10:31:59.412Z,42.54
2018-05-05T10:32:59.336Z,41.96
2018-05-05T10:33:59.301Z,41.67
2018-05-05T10:34:59.267Z,41.67
2018-05-05T10:35:59.246Z,42.15
2018-05-05T10:36:59.228Z,42.05
2018-05-05T10:37:59.201Z,41.57
2018-05-05T10:38:59.183Z,42.15
2018-05-05T10:39:59.155Z,42.15
2018-05-05T10:40:59.135Z,42.15
2018-05-05T10:41:59.122Z,42.63
2018-05-05T10:42:59.087Z,43.02
2018-05-05T10:43:59.074Z,42.05
2018-05-05T10:44:59.046Z,42.25
2018-05-05T10:45:59.024Z,41.96
2018-05-05T10:46:58.998Z,42.35
2018-05-05T10:47:58.973Z,42.27
2018-05-05T10:48:58.953Z,42.27
2018-05-05T10:49:58.929Z,42.18
2018-05-05T10:50:58.918Z,42.27
2018-05-05T10:51:58.893Z,42.94
2018-05-05T10:52:58.867Z,42.56
2018-05-05T10:53:58.842Z,42.66
2018-05-05T10:54:58.814Z,43.14
2018-05-05T10:55:58.798Z,42.85
2018-05-05T10:56:58.803Z,43.02
2018-05-05T10:57:58.779Z,42.46
2018-05-05T10:58:58.738Z,42.27
2018-05-05T10:59:58.968Z,42.36
2018-05-05T11:00:58.698Z,42.19
2018-05-05T11:01:58.745Z,42.00
2018-05-05T11:02:58.645Z,42.00
2018-05-05T11:03:58.625Z,42.02
2018-05-05T11:04:58.603Z,41.63
2018-05-05T11:05:58.579Z,42.19
2018-05-05T11:06:58.551Z,41.60
2018-05-05T11:07:58.534Z,41.40
2018-05-05T11:08:58.508Z,41.50
2018-05-05T11:09:58.482Z,41.11
2018-05-05T11:10:58.479Z,41.98
2018-05-05T11:11:58.452Z,41.98
2018-05-05T11:12:58.423Z,42.29
2018-05-05T11:13:58.405Z,41.13
2018-05-05T11:14:58.377Z,41.54
2018-05-05T11:15:58.354Z,41.35
2018-05-05T11:16:58.337Z,41.63
2018-05-05T11:17:58.322Z,42.12
2018-05-05T11:18:58.292Z,41.44
2018-05-05T11:19:58.273Z,42.41
2018-05-05T11:20:58.246Z,42.50
2018-05-05T11:21:58.219Z,42.21
2018-05-05T11:22:58.204Z,42.52
2018-05-05T11:23:58.184Z,41.19
2018-05-05T11:24:58.161Z,40.90
2018-05-05T11:25:58.149Z,39.76
2018-05-05T11:26:58.113Z,38.91
2018-05-05T11:27:58.097Z,38.95
2018-05-05T11:28:58.071Z,37.40
2018-05-05T11:29:58.122Z,36.44
2018-05-05T11:30:58.036Z,36.19
2018-05-05T11:31:58.032Z,34.85
2018-05-05T11:32:57.991Z,34.66
2018-05-05T11:33:57.964Z,33.80
2018-05-05T11:34:57.950Z,33.69
2018-05-05T11:35:57.942Z,33.46
2018-05-05T11:36:57.930Z,34.62
2018-05-05T11:37:57.892Z,35.13
2018-05-05T11:38:57.868Z,35.13
2018-05-05T11:39:57.858Z,35.51
2018-05-05T11:40:57.831Z,34.36
2018-05-05T11:41:57.807Z,33.80
2018-05-05T11:42:57.797Z,33.04
2018-05-05T11:43:57.774Z,33.02
2018-05-05T11:44:57.799Z,33.39
2018-05-05T11:45:57.810Z,34.08
2018-05-05T11:46:57.718Z,34.54
2018-05-05T11:47:57.696Z,34.81
2018-05-05T11:48:57.685Z,34.64
2018-05-05T11:49:57.664Z,34.66
2018-05-05T11:50:57.645Z,33.99
2018-05-05T11:51:57.621Z,32.91
2018-05-05T11:52:57.606Z,33.20
2018-05-05T11:53:57.587Z,33.02
2018-05-05T11:54:57.573Z,32.82
2018-05-05T11:55:57.637Z,32.54
2018-05-05T11:56:57.551Z,32.34
2018-05-05T11:57:57.530Z,31.77
2018-05-05T11:58:57.498Z,31.21
2018-05-05T11:59:57.489Z,31.13
2018-05-05T12:00:57.467Z,31.29
2018-05-05T12:01:57.453Z,30.93
2018-05-05T12:02:57.436Z,30.17
2018-05-05T12:03:57.421Z,29.40
2018-05-05T12:04:57.397Z,28.82
2018-05-05T12:05:57.388Z,29.38
2018-05-05T12:06:57.380Z,30.14
2018-05-05T12:07:57.355Z,30.14
2018-05-05T12:08:57.339Z,30.64
2018-05-05T12:09:57.344Z,30.25
2018-05-05T12:10:57.301Z,30.07
2018-05-05T12:11:57.284Z,30.28
2018-05-05T12:12:57.265Z,29.21
2018-05-05T12:13:57.255Z,28.63
2018-05-05T12:14:57.242Z,28.90
2018-05-05T12:15:57.225Z,28.82
2018-05-05T12:16:57.212Z,29.29
2018-05-05T12:17:57.199Z,29.69
2018-05-05T12:18:57.177Z,29.66
2018-05-05T12:19:57.158Z,30.26
2018-05-05T12:20:57.152Z,30.17
2018-05-05T12:21:57.134Z,30.33
2018-05-05T12:22:57.129Z,30.05
2018-05-05T12:23:57.098Z,29.57
2018-05-05T12:24:57.084Z,29.22
2018-05-05T12:25:57.074Z,29.00
2018-05-05T12:26:57.056Z,29.66
2018-05-05T12:27:57.057Z,29.47
2018-05-05T12:28:57.028Z,29.00
2018-05-05T12:29:57.081Z,28.43
2018-05-05T12:30:57.790Z,27.86
2018-05-05T12:31:56.978Z,28.07
2018-05-05T12:32:56.963Z,28.03
2018-05-05T12:33:56.956Z,28.79
2018-05-05T12:34:56.938Z,29.65
2018-05-05T12:35:56.935Z,29.54
2018-05-05T12:36:56.906Z,29.36
2018-05-05T12:37:56.895Z,29.02
2018-05-05T12:38:56.881Z,28.32
2018-05-05T12:39:56.874Z,27.83
2018-05-05T12:40:56.870Z,27.84
2018-05-05T12:41:56.840Z,27.48
2018-05-05T12:42:56.831Z,27.69
2018-05-05T12:43:56.814Z,27.36
2018-05-05T12:44:56.795Z,28.43
2018-05-05T12:45:56.791Z,27.87
2018-05-05T12:46:56.773Z,27.39
2018-05-05T12:47:56.827Z,26.80
2018-05-05T12:48:56.753Z,27.30
2018-05-05T12:49:56.736Z,26.13
2018-05-05T12:50:56.723Z,26.03
2018-05-05T12:51:56.704Z,26.02